Bismarck, North Dakota
Current Conditions -  °F | °C
As of 9:52 PM on Tuesday 27 Jan 2015 (Local Time) from KBIS Reporting Station
Clear Clear  
Wind Chill: 29°   Ceiling: Unl
Heat Index: 33°   Visibility: 10mi
Dew Point: 31°   Wind: 5mph
Humidity: 92%   Direction: 100°E
Pressure: 29.79"   Gusts: NA
Location:  46.81°N, 100.77°W
Report Text: KBIS 280352Z AUTO 10004KT 10SM CLR 01/M01 A2979 RMK AO2 SLP106 T00061006
Loading
Personal Weather Stations






























Interactive Weather Map New forecast layout! Learn more

10-Day Weather Forecast

Advertisements
Track Severe Weather on mobile